createdAt,value
2022-08-24T00:01:51.279Z,99.90
2022-08-24T00:04:18.319Z,99.90
2022-08-24T00:06:45.733Z,99.90
2022-08-24T00:09:12.677Z,99.90
2022-08-24T00:11:39.971Z,99.90
2022-08-24T00:14:07.994Z,99.90
2022-08-24T00:16:35.671Z,99.90
2022-08-24T00:19:03.472Z,99.90
2022-08-24T00:21:30.612Z,99.90
2022-08-24T00:23:57.747Z,99.90
2022-08-24T00:26:29.450Z,99.90
2022-08-24T00:28:57.793Z,99.90
2022-08-24T00:31:25.673Z,99.90
2022-08-24T00:33:53.083Z,99.90
2022-08-24T00:36:21.906Z,99.90
2022-08-24T00:38:49.792Z,99.90
2022-08-24T00:41:17.376Z,99.90
2022-08-24T00:44:11.521Z,99.90
2022-08-24T00:47:01.542Z,99.90
2022-08-24T00:49:40.747Z,99.90
2022-08-24T00:52:40.632Z,99.90
2022-08-24T00:55:13.976Z,99.90
2022-08-24T00:57:44.051Z,99.90
2022-08-24T01:00:19.900Z,99.90
2022-08-24T01:02:51.573Z,99.90
2022-08-24T01:05:20.515Z,99.90
2022-08-24T01:07:49.470Z,99.90
2022-08-24T01:10:27.375Z,99.90
2022-08-24T01:13:00.546Z,99.90
2022-08-24T01:15:33.806Z,99.90
2022-08-24T01:18:31.545Z,99.90
2022-08-24T01:21:25.037Z,99.90
2022-08-24T01:23:59.906Z,99.90
2022-08-24T01:26:47.840Z,99.90
2022-08-24T01:29:27.668Z,99.90
2022-08-24T01:31:55.517Z,99.90
2022-08-24T01:34:22.942Z,99.90
2022-08-24T01:36:59.591Z,99.90
2022-08-24T01:39:31.213Z,99.90
2022-08-24T01:42:00.024Z,99.90
2022-08-24T01:44:31.049Z,99.90
2022-08-24T01:46:58.612Z,99.90
2022-08-24T01:49:30.063Z,99.90
2022-08-24T01:51:58.845Z,99.90
2022-08-24T01:54:27.128Z,99.90
2022-08-24T01:56:54.998Z,99.90
2022-08-24T01:59:22.326Z,99.90
2022-08-24T02:01:55.122Z,99.90
2022-08-24T02:04:27.586Z,99.90
2022-08-24T02:06:55.587Z,99.90
2022-08-24T02:09:22.817Z,99.90
2022-08-24T02:11:53.965Z,99.90
2022-08-24T02:14:22.035Z,99.90
2022-08-24T02:16:49.957Z,99.90
2022-08-24T02:19:25.471Z,99.90
2022-08-24T02:21:52.645Z,99.90
2022-08-24T02:24:19.682Z,99.90
2022-08-24T02:26:46.731Z,99.90
2022-08-24T02:29:13.966Z,99.90
2022-08-24T02:31:41.452Z,99.90
2022-08-24T02:34:09.119Z,99.90
2022-08-24T02:36:36.462Z,99.90
2022-08-24T02:39:04.942Z,99.90
2022-08-24T02:41:34.578Z,99.90
2022-08-24T02:44:02.531Z,99.90
2022-08-24T02:46:30.880Z,99.90
2022-08-24T02:49:10.661Z,99.90
2022-08-24T02:51:44.948Z,99.90
2022-08-24T02:54:17.999Z,99.90
2022-08-24T02:56:47.521Z,99.90
2022-08-24T02:59:17.215Z,99.90
2022-08-24T03:01:44.878Z,99.90
2022-08-24T03:04:12.809Z,99.90
2022-08-24T03:06:39.939Z,99.90
2022-08-24T03:09:08.229Z,99.90
2022-08-24T03:11:35.306Z,99.90
2022-08-24T03:14:02.753Z,99.90
2022-08-24T03:16:31.971Z,99.90
2022-08-24T03:19:01.162Z,99.90
2022-08-24T03:21:31.527Z,99.90
2022-08-24T03:23:59.143Z,99.90
2022-08-24T03:26:26.129Z,99.90
2022-08-24T03:28:54.560Z,99.90
2022-08-24T03:31:21.950Z,99.90
2022-08-24T03:33:51.857Z,99.90
2022-08-24T03:36:19.296Z,99.90
2022-08-24T03:38:46.246Z,99.90
2022-08-24T03:41:13.643Z,99.90
2022-08-24T03:43:48.792Z,99.90
2022-08-24T03:46:28.850Z,99.90
2022-08-24T03:48:58.077Z,99.90
2022-08-24T03:51:28.419Z,99.90
2022-08-24T03:53:58.597Z,99.90
2022-08-24T03:56:27.963Z,99.90
2022-08-24T03:58:55.852Z,99.90
2022-08-24T04:01:25.181Z,99.90
2022-08-24T04:03:55.501Z,99.90
2022-08-24T04:06:27.975Z,99.90
2022-08-24T04:08:56.909Z,99.90
2022-08-24T04:11:26.555Z,99.90
2022-08-24T04:13:58.908Z,99.90
2022-08-24T04:16:26.412Z,99.90
2022-08-24T04:19:05.956Z,99.90
2022-08-24T04:21:36.721Z,99.90
2022-08-24T04:24:09.150Z,99.90
2022-08-24T04:26:45.691Z,99.90
2022-08-24T04:29:19.455Z,99.90
2022-08-24T04:31:53.616Z,99.90
2022-08-24T04:34:21.663Z,99.90
2022-08-24T04:36:49.909Z,99.90
2022-08-24T04:39:17.199Z,99.90
2022-08-24T04:42:07.184Z,99.90
2022-08-24T04:44:40.004Z,99.90
2022-08-24T04:47:08.589Z,99.90
2022-08-24T04:49:38.299Z,99.90
2022-08-24T04:52:08.200Z,99.90
2022-08-24T04:54:35.496Z,99.90
2022-08-24T04:57:08.733Z,99.90
2022-08-24T04:59:36.363Z,99.90
2022-08-24T05:02:03.816Z,99.90
2022-08-24T05:04:31.272Z,99.90
2022-08-24T05:06:59.081Z,99.90
2022-08-24T05:09:27.506Z,99.90
2022-08-24T05:11:55.978Z,99.90
2022-08-24T05:14:28.967Z,99.90
2022-08-24T05:16:57.124Z,99.90
2022-08-24T05:19:24.470Z,99.90
2022-08-24T05:21:51.635Z,99.90
2022-08-24T05:24:19.941Z,99.90
2022-08-24T05:26:48.208Z,99.90
2022-08-24T05:29:17.009Z,99.90
2022-08-24T05:31:48.109Z,99.90
2022-08-24T05:34:16.375Z,99.90
2022-08-24T05:36:44.039Z,99.90
2022-08-24T05:39:37.347Z,99.90
2022-08-24T05:42:07.936Z,99.90
2022-08-24T05:44:38.590Z,99.90
2022-08-24T05:47:05.931Z,99.90
2022-08-24T05:49:34.894Z,99.90
2022-08-24T05:52:03.754Z,99.90
2022-08-24T05:54:30.919Z,99.90
2022-08-24T05:57:05.207Z,99.90
2022-08-24T05:59:41.990Z,99.90
2022-08-24T06:02:14.887Z,99.90
2022-08-24T06:04:42.268Z,99.90
2022-08-24T06:07:10.224Z,99.90
2022-08-24T06:09:41.434Z,99.90
2022-08-24T06:12:09.316Z,99.90
2022-08-24T06:14:37.282Z,99.90
2022-08-24T06:17:10.694Z,99.90
2022-08-24T06:19:37.674Z,99.90
2022-08-24T06:22:05.424Z,99.90
2022-08-24T06:24:55.642Z,99.90
2022-08-24T06:27:23.728Z,99.90
2022-08-24T06:29:57.145Z,99.90
2022-08-24T06:32:44.177Z,99.90
2022-08-24T06:35:19.321Z,99.90
2022-08-24T06:37:46.398Z,99.90
2022-08-24T06:40:16.985Z,99.90
2022-08-24T06:42:44.157Z,99.90
2022-08-24T06:45:25.335Z,99.90
2022-08-24T06:47:53.947Z,99.90
2022-08-24T06:50:24.408Z,99.90
2022-08-24T06:52:52.184Z,99.90
2022-08-24T06:55:19.488Z,99.90
2022-08-24T06:57:51.665Z,99.90
2022-08-24T07:00:20.776Z,99.90
2022-08-24T07:02:48.623Z,99.90
2022-08-24T07:05:16.670Z,99.90
2022-08-24T07:08:07.582Z,99.90
2022-08-24T07:10:35.426Z,99.90
2022-08-24T07:13:04.091Z,99.90
2022-08-24T07:15:31.227Z,99.90
2022-08-24T07:18:11.346Z,99.90
2022-08-24T07:20:45.038Z,99.90
2022-08-24T07:23:21.511Z,99.90
2022-08-24T07:25:52.160Z,99.90
2022-08-24T07:28:27.710Z,99.90
2022-08-24T07:31:01.279Z,99.90
2022-08-24T07:33:34.150Z,99.90
2022-08-24T07:36:01.461Z,99.90
2022-08-24T07:38:29.287Z,99.90
2022-08-24T07:41:20.578Z,99.90
2022-08-24T07:43:47.542Z,99.90
2022-08-24T07:46:15.525Z,99.90
2022-08-24T07:48:42.685Z,99.90
2022-08-24T07:51:12.520Z,99.90
2022-08-24T07:53:53.662Z,99.90
2022-08-24T07:56:25.567Z,99.90
2022-08-24T07:58:54.495Z,99.90
2022-08-24T08:01:22.622Z,99.90
2022-08-24T08:03:51.893Z,99.90
2022-08-24T08:06:19.908Z,99.90
2022-08-24T08:08:49.785Z,99.90
2022-08-24T08:11:17.361Z,99.90
2022-08-24T08:13:45.325Z,99.90
2022-08-24T08:16:19.505Z,99.90
2022-08-24T08:18:52.418Z,99.90
2022-08-24T08:21:52.270Z,99.90
2022-08-24T08:24:20.559Z,99.90
2022-08-24T08:26:52.804Z,99.90
2022-08-24T08:29:28.570Z,99.90
2022-08-24T08:32:00.682Z,99.90
2022-08-24T08:34:31.422Z,99.90
2022-08-24T08:37:00.144Z,99.90
2022-08-24T08:39:28.106Z,99.90
2022-08-24T08:42:18.164Z,99.90
2022-08-24T08:44:53.872Z,99.90
2022-08-24T08:47:30.781Z,99.90
2022-08-24T08:49:58.675Z,99.90
2022-08-24T08:52:49.130Z,99.90
2022-08-24T08:55:41.536Z,99.90
2022-08-24T08:58:33.861Z,99.90
2022-08-24T09:01:16.109Z,99.90
2022-08-24T09:04:17.204Z,99.90
2022-08-24T09:07:15.860Z,99.90
2022-08-24T09:10:19.180Z,99.90
2022-08-24T09:13:22.966Z,99.90
2022-08-24T09:16:10.438Z,99.90
2022-08-24T09:18:57.929Z,99.90
2022-08-24T09:21:45.638Z,99.90
2022-08-24T09:24:17.640Z,99.90
2022-08-24T09:27:13.242Z,99.90
2022-08-24T09:29:56.168Z,99.90
2022-08-24T09:33:15.405Z,99.90
2022-08-24T09:35:51.668Z,99.90
2022-08-24T09:38:48.806Z,99.90
2022-08-24T09:41:49.941Z,99.90
2022-08-24T09:45:04.925Z,99.90
2022-08-24T09:47:51.455Z,99.90
2022-08-24T09:50:23.673Z,99.90
2022-08-24T09:53:05.800Z,99.90
2022-08-24T09:55:45.306Z,99.90
2022-08-24T09:58:57.897Z,99.90
2022-08-24T10:01:45.056Z,99.90
2022-08-24T10:04:31.394Z,99.90
2022-08-24T10:07:12.393Z,99.90
2022-08-24T10:09:58.921Z,99.90
2022-08-24T10:12:28.525Z,99.90
2022-08-24T10:15:02.227Z,99.90
2022-08-24T10:17:45.319Z,99.90
2022-08-24T10:20:33.322Z,99.90
2022-08-24T10:23:43.661Z,99.90
2022-08-24T10:26:16.786Z,99.90
2022-08-24T10:29:11.258Z,99.90
2022-08-24T10:31:50.408Z,99.90
2022-08-24T10:34:27.460Z,99.90
2022-08-24T10:37:18.993Z,99.90
2022-08-24T10:40:13.430Z,99.90
2022-08-24T10:43:26.850Z,99.90
2022-08-24T10:46:24.907Z,99.90
2022-08-24T10:49:06.929Z,99.90
2022-08-24T10:52:13.794Z,99.90
2022-08-24T10:54:41.240Z,99.90
2022-08-24T10:57:26.703Z,99.90
2022-08-24T11:00:20.315Z,99.90
2022-08-24T11:03:05.000Z,99.90
2022-08-24T11:05:41.512Z,99.90
2022-08-24T11:08:08.945Z,99.90
2022-08-24T11:10:39.161Z,99.90
2022-08-24T11:13:17.953Z,99.90
2022-08-24T11:15:58.112Z,99.90
2022-08-24T11:18:25.938Z,99.30
2022-08-24T11:20:55.584Z,99.10
2022-08-24T11:23:34.936Z,99.20
2022-08-24T11:26:05.916Z,99.10
2022-08-24T11:28:36.768Z,99.90
2022-08-24T11:31:04.243Z,98.20
2022-08-24T11:33:35.122Z,98.10
2022-08-24T11:36:03.498Z,97.70
2022-08-24T11:38:34.945Z,97.90
2022-08-24T11:41:19.187Z,97.50
2022-08-24T11:44:07.607Z,97.30
2022-08-24T11:46:46.865Z,97.40
2022-08-24T11:49:33.004Z,96.30
2022-08-24T11:52:22.947Z,95.90
2022-08-24T11:55:17.333Z,96.00
2022-08-24T11:58:04.286Z,95.80
2022-08-24T12:00:47.663Z,95.40
2022-08-24T12:03:31.837Z,95.20
2022-08-24T12:06:27.643Z,96.10
2022-08-24T12:09:12.992Z,95.30
2022-08-24T12:11:55.771Z,94.60
2022-08-24T12:14:51.451Z,93.40
2022-08-24T12:17:18.459Z,94.00
2022-08-24T12:20:01.239Z,93.70
2022-08-24T12:22:30.080Z,93.00
2022-08-24T12:25:00.658Z,93.30
2022-08-24T12:27:33.148Z,94.40
2022-08-24T12:30:12.376Z,93.70
2022-08-24T12:32:44.186Z,93.60
2022-08-24T12:35:19.479Z,93.60
2022-08-24T12:37:58.743Z,93.30
2022-08-24T12:40:30.930Z,93.90
2022-08-24T12:43:09.271Z,93.30
2022-08-24T12:45:37.959Z,93.40
2022-08-24T12:48:16.246Z,92.30
2022-08-24T12:50:52.114Z,92.40
2022-08-24T12:53:38.052Z,94.10
2022-08-24T12:56:55.775Z,93.90
2022-08-24T12:59:38.646Z,92.30
2022-08-24T13:02:11.754Z,93.00
2022-08-24T13:04:51.101Z,93.20
2022-08-24T13:07:24.192Z,91.50
2022-08-24T13:09:53.952Z,91.80
2022-08-24T13:12:41.933Z,91.50
2022-08-24T13:15:23.921Z,93.70
2022-08-24T13:17:51.868Z,92.00
2022-08-24T13:20:28.326Z,91.70
2022-08-24T13:23:13.418Z,90.90
2022-08-24T13:25:51.967Z,90.10
2022-08-24T13:28:25.859Z,90.10
2022-08-24T13:31:18.529Z,91.20
2022-08-24T13:33:48.184Z,91.60
2022-08-24T13:36:53.627Z,91.00
2022-08-24T13:39:49.071Z,90.70
2022-08-24T13:42:38.089Z,89.40
2022-08-24T13:45:19.932Z,90.80
2022-08-24T13:47:49.779Z,88.50
2022-08-24T13:50:41.186Z,87.90
2022-08-24T13:53:34.454Z,85.30
2022-08-24T13:56:44.475Z,87.00
2022-08-24T13:59:36.413Z,89.20
2022-08-24T14:02:14.192Z,88.30
2022-08-24T14:04:47.602Z,89.20
2022-08-24T14:07:23.745Z,88.70
2022-08-24T14:10:02.461Z,87.00
2022-08-24T14:12:32.172Z,87.40
2022-08-24T14:15:17.963Z,88.50
2022-08-24T14:18:06.682Z,87.10
2022-08-24T14:21:01.818Z,86.30
2022-08-24T14:23:33.244Z,86.60
2022-08-24T14:26:31.454Z,87.00
2022-08-24T14:29:18.478Z,88.20
2022-08-24T14:31:58.496Z,86.40
2022-08-24T14:34:40.166Z,86.10
2022-08-24T14:37:13.190Z,85.70
2022-08-24T14:40:06.933Z,86.10
2022-08-24T14:42:37.555Z,85.40
2022-08-24T14:45:30.227Z,84.20
2022-08-24T14:48:39.786Z,84.70
2022-08-24T14:51:35.033Z,85.70
2022-08-24T14:54:37.758Z,85.60
2022-08-24T14:57:28.369Z,86.00
2022-08-24T15:00:13.772Z,85.30
2022-08-24T15:02:42.358Z,85.90
2022-08-24T15:05:21.830Z,85.10
2022-08-24T15:08:27.312Z,83.90
2022-08-24T15:11:08.406Z,89.90
2022-08-24T15:25:46.668Z,81.60
2022-08-24T15:28:28.678Z,83.80
2022-08-24T15:31:10.144Z,82.10
2022-08-24T15:33:59.943Z,81.90
2022-08-24T15:36:30.422Z,80.30
2022-08-24T15:38:58.387Z,80.30
2022-08-24T15:41:35.617Z,80.10
2022-08-24T15:44:21.470Z,79.30
2022-08-24T15:46:57.250Z,79.20
2022-08-24T15:49:24.781Z,76.90
2022-08-24T15:51:55.567Z,77.60
2022-08-24T15:54:31.581Z,78.90
2022-08-24T15:57:17.269Z,79.50
2022-08-24T15:59:44.366Z,78.80
2022-08-24T16:02:26.412Z,80.80
2022-08-24T16:05:24.213Z,80.80
2022-08-24T16:08:03.217Z,79.80
2022-08-24T16:10:46.040Z,80.90
2022-08-24T16:13:19.654Z,80.20
2022-08-24T16:16:11.245Z,81.60
2022-08-24T16:19:02.981Z,82.40
2022-08-24T16:21:50.344Z,82.20
2022-08-24T16:24:21.165Z,82.20
2022-08-24T16:26:48.053Z,83.70
2022-08-24T16:29:36.550Z,80.60
2022-08-24T16:32:21.058Z,82.40
2022-08-24T16:35:13.775Z,83.30
2022-08-24T16:37:41.196Z,83.40
2022-08-24T16:40:09.225Z,82.80
2022-08-24T16:42:36.989Z,83.30
2022-08-24T16:45:10.557Z,82.30
2022-08-24T16:47:37.520Z,83.00
2022-08-24T16:50:06.674Z,83.70
2022-08-24T16:52:33.685Z,84.60
2022-08-24T16:55:01.621Z,84.60
2022-08-24T16:57:31.419Z,85.50
2022-08-24T16:59:58.902Z,84.80
2022-08-24T17:02:26.499Z,85.50
2022-08-24T17:04:54.958Z,87.30
2022-08-24T17:07:25.527Z,89.00
2022-08-24T17:09:53.195Z,84.30
2022-08-24T17:12:20.828Z,85.00
2022-08-24T17:14:48.125Z,83.80
2022-08-24T17:17:21.349Z,83.20
2022-08-24T17:19:53.702Z,82.40
2022-08-24T17:22:23.054Z,82.20
2022-08-24T17:24:50.723Z,82.60
2022-08-24T17:27:20.051Z,83.50
2022-08-24T17:29:47.801Z,83.30
2022-08-24T17:32:16.489Z,83.70
2022-08-24T17:34:43.741Z,83.50
2022-08-24T17:37:11.078Z,83.10
2022-08-24T17:39:38.562Z,83.90
2022-08-24T17:42:20.926Z,83.80
2022-08-24T17:44:54.030Z,84.00
2022-08-24T17:47:21.870Z,85.50
2022-08-24T17:49:49.570Z,86.50
2022-08-24T17:52:16.897Z,86.90
2022-08-24T17:54:43.853Z,86.80
2022-08-24T17:57:13.479Z,85.90
2022-08-24T17:59:41.039Z,86.50
2022-08-24T18:02:13.219Z,87.70
2022-08-24T18:04:41.253Z,88.30
2022-08-24T18:07:12.506Z,88.70
2022-08-24T18:09:54.281Z,89.10
2022-08-24T18:12:23.053Z,89.00
2022-08-24T18:14:50.832Z,88.80
2022-08-24T18:17:32.865Z,90.00
2022-08-24T18:20:00.875Z,90.20
2022-08-24T18:22:28.400Z,91.20
2022-08-24T18:24:55.856Z,90.90
2022-08-24T18:27:28.936Z,91.10
2022-08-24T18:30:01.420Z,91.40
2022-08-24T18:32:31.130Z,91.40
2022-08-24T18:34:59.824Z,91.80
2022-08-24T18:37:26.954Z,92.30
2022-08-24T18:39:54.014Z,92.00
2022-08-24T18:42:24.201Z,91.80
2022-08-24T18:44:51.456Z,91.60
2022-08-24T18:47:18.806Z,91.30
2022-08-24T18:49:46.272Z,91.70
2022-08-24T18:52:16.733Z,92.20
2022-08-24T18:55:10.980Z,92.40
2022-08-24T18:57:42.238Z,92.50
2022-08-24T19:00:18.627Z,92.70
2022-08-24T19:02:48.274Z,93.10
2022-08-24T19:05:20.860Z,93.40
2022-08-24T19:07:52.546Z,93.70
2022-08-24T19:10:20.907Z,93.70
2022-08-24T19:12:52.581Z,93.60
2022-08-24T19:15:32.603Z,93.70
2022-08-24T19:18:09.821Z,93.90
2022-08-24T19:20:42.279Z,94.50
2022-08-24T19:23:14.678Z,94.30
2022-08-24T19:25:45.103Z,94.50
2022-08-24T19:28:12.801Z,95.00
2022-08-24T19:30:42.358Z,95.10
2022-08-24T19:33:14.174Z,95.10
2022-08-24T19:35:42.259Z,95.00
2022-08-24T19:38:09.373Z,95.10
2022-08-24T19:40:37.613Z,95.30
2022-08-24T19:43:06.394Z,95.60
2022-08-24T19:45:54.876Z,95.60
2022-08-24T19:48:24.341Z,95.60
2022-08-24T19:50:54.095Z,95.30
2022-08-24T19:53:25.407Z,95.10
2022-08-24T19:55:52.950Z,94.70
2022-08-24T19:58:27.269Z,94.80
2022-08-24T20:01:02.901Z,94.60
2022-08-24T20:03:30.017Z,94.90
2022-08-24T20:05:57.532Z,94.90
2022-08-24T20:08:24.880Z,94.90
2022-08-24T20:10:56.313Z,94.90
2022-08-24T20:13:23.543Z,95.10
2022-08-24T20:15:53.078Z,95.30
2022-08-24T20:18:26.939Z,95.40
2022-08-24T20:20:53.883Z,95.40
2022-08-24T20:23:21.302Z,95.70
2022-08-24T20:25:51.027Z,95.80
2022-08-24T20:28:29.029Z,95.90
2022-08-24T20:30:57.006Z,96.10
2022-08-24T20:33:25.240Z,95.80
2022-08-24T20:35:52.569Z,95.90
2022-08-24T20:38:21.828Z,95.90
2022-08-24T20:40:50.227Z,96.10
2022-08-24T20:43:17.194Z,96.20
2022-08-24T20:45:44.464Z,96.00
2022-08-24T20:48:13.854Z,95.80
2022-08-24T20:50:45.450Z,96.00
2022-08-24T20:53:12.556Z,96.10
2022-08-24T20:55:41.674Z,96.20
2022-08-24T20:58:09.327Z,96.30
2022-08-24T21:00:37.393Z,96.40
2022-08-24T21:03:05.148Z,96.30
2022-08-24T21:05:33.215Z,96.40
2022-08-24T21:08:00.488Z,96.60
2022-08-24T21:10:28.198Z,96.40
2022-08-24T21:12:55.616Z,97.00
2022-08-24T21:15:23.378Z,96.70
2022-08-24T21:17:56.416Z,96.70
2022-08-24T21:20:23.470Z,96.40
2022-08-24T21:22:50.550Z,96.10
2022-08-24T21:25:18.297Z,95.60
2022-08-24T21:27:48.046Z,95.50
2022-08-24T21:30:21.096Z,95.90
2022-08-24T21:33:07.599Z,96.60
2022-08-24T21:35:36.092Z,97.00
2022-08-24T21:38:04.702Z,97.10
2022-08-24T21:40:32.213Z,96.60
2022-08-24T21:42:59.451Z,96.70
2022-08-24T21:45:27.873Z,97.30
2022-08-24T21:47:55.150Z,97.60
2022-08-24T21:50:25.647Z,98.10
2022-08-24T21:52:54.124Z,98.00
2022-08-24T21:55:21.900Z,98.20
2022-08-24T21:57:49.602Z,98.20
2022-08-24T22:00:19.778Z,98.30
2022-08-24T22:02:48.226Z,98.30
2022-08-24T22:05:16.941Z,98.50
2022-08-24T22:07:45.210Z,98.40
2022-08-24T22:10:13.204Z,98.30
2022-08-24T22:12:43.299Z,98.50
2022-08-24T22:15:14.557Z,98.60
2022-08-24T22:17:42.852Z,98.10
2022-08-24T22:20:20.141Z,98.20
2022-08-24T22:22:51.482Z,98.40
2022-08-24T22:25:18.636Z,98.50
2022-08-24T22:27:46.687Z,98.70
2022-08-24T22:30:17.136Z,98.80
2022-08-24T22:32:45.698Z,98.80
2022-08-24T22:35:14.267Z,98.70
2022-08-24T22:37:42.047Z,98.90
2022-08-24T22:40:12.522Z,98.90
2022-08-24T22:42:40.966Z,99.20
2022-08-24T22:45:09.930Z,99.40
2022-08-24T22:47:38.245Z,99.20
2022-08-24T22:50:06.092Z,99.20
2022-08-24T22:52:33.174Z,99.50
2022-08-24T22:55:00.480Z,99.50
2022-08-24T22:57:28.223Z,99.80
2022-08-24T22:59:57.541Z,99.90
2022-08-24T23:02:24.889Z,99.90
2022-08-24T23:04:52.900Z,99.90
2022-08-24T23:07:20.885Z,99.90
2022-08-24T23:09:49.013Z,99.90
2022-08-24T23:12:20.401Z,99.90
2022-08-24T23:14:50.371Z,99.90
2022-08-24T23:17:18.798Z,99.90
2022-08-24T23:20:01.038Z,99.90
2022-08-24T23:22:37.974Z,99.90
2022-08-24T23:25:07.270Z,99.90
2022-08-24T23:27:37.964Z,99.90
2022-08-24T23:30:09.057Z,99.90
2022-08-24T23:32:36.553Z,99.90
2022-08-24T23:35:04.547Z,99.90
2022-08-24T23:37:31.684Z,99.90
2022-08-24T23:39:59.366Z,99.90
2022-08-24T23:42:26.383Z,99.90
2022-08-24T23:44:53.879Z,99.90
2022-08-24T23:47:21.282Z,99.90
2022-08-24T23:49:48.244Z,99.90
2022-08-24T23:52:27.234Z,99.90
2022-08-24T23:55:18.233Z,99.90
2022-08-24T23:57:44.494Z,99.90
